sensor_id;sensor_type;location;lat;lon;timestamp;P1;durP1;ratioP1;P2;durP2;ratioP2
58354;SDS011;44160;49.080;19.302;2023-04-24T00:00:30;9.38;;;5.20;;
58354;SDS011;44160;49.080;19.302;2023-04-24T00:02:56;7.57;;;5.40;;
58354;SDS011;44160;49.080;19.302;2023-04-24T00:05:22;8.75;;;5.50;;
58354;SDS011;44160;49.080;19.302;2023-04-24T00:07:49;15.35;;;5.40;;
58354;SDS011;44160;49.080;19.302;2023-04-24T00:10:17;7.13;;;4.90;;
58354;SDS011;44160;49.080;19.302;2023-04-24T00:12:44;8.85;;;5.75;;
58354;SDS011;44160;49.080;19.302;2023-04-24T00:15:10;12.05;;;6.00;;
58354;SDS011;44160;49.080;19.302;2023-04-24T00:17:36;11.95;;;5.95;;
58354;SDS011;44160;49.080;19.302;2023-04-24T00:20:03;13.43;;;6.10;;
58354;SDS011;44160;49.080;19.302;2023-04-24T00:22:29;9.25;;;5.82;;
58354;SDS011;44160;49.080;19.302;2023-04-24T00:24:56;12.02;;;5.47;;
58354;SDS011;44160;49.080;19.302;2023-04-24T00:27:22;8.85;;;6.65;;
58354;SDS011;44160;49.080;19.302;2023-04-24T00:29:48;11.10;;;5.85;;
58354;SDS011;44160;49.080;19.302;2023-04-24T00:32:15;12.02;;;6.45;;
58354;SDS011;44160;49.080;19.302;2023-04-24T00:34:44;12.88;;;6.43;;
58354;SDS011;44160;49.080;19.302;2023-04-24T00:37:17;12.48;;;7.03;;
58354;SDS011;44160;49.080;19.302;2023-04-24T00:39:43;14.02;;;6.65;;
58354;SDS011;44160;49.080;19.302;2023-04-24T00:42:09;9.02;;;5.97;;
58354;SDS011;44160;49.080;19.302;2023-04-24T00:44:35;11.65;;;5.85;;
58354;SDS011;44160;49.080;19.302;2023-04-24T00:47:01;12.77;;;6.25;;
58354;SDS011;44160;49.080;19.302;2023-04-24T00:49:27;10.02;;;5.97;;
58354;SDS011;44160;49.080;19.302;2023-04-24T00:51:54;11.95;;;6.65;;
58354;SDS011;44160;49.080;19.302;2023-04-24T00:54:22;11.10;;;6.25;;
58354;SDS011;44160;49.080;19.302;2023-04-24T00:56:48;15.30;;;7.15;;
58354;SDS011;44160;49.080;19.302;2023-04-24T00:59:16;10.65;;;6.97;;
58354;SDS011;44160;49.080;19.302;2023-04-24T01:01:42;12.23;;;6.75;;
58354;SDS011;44160;49.080;19.302;2023-04-24T01:04:09;11.05;;;6.65;;
58354;SDS011;44160;49.080;19.302;2023-04-24T01:06:35;12.63;;;6.22;;
58354;SDS011;44160;49.080;19.302;2023-04-24T01:09:04;9.55;;;6.28;;
58354;SDS011;44160;49.080;19.302;2023-04-24T01:11:30;8.50;;;5.65;;
58354;SDS011;44160;49.080;19.302;2023-04-24T01:13:56;9.57;;;5.68;;
58354;SDS011;44160;49.080;19.302;2023-04-24T01:16:23;13.60;;;5.22;;
58354;SDS011;44160;49.080;19.302;2023-04-24T01:18:50;8.80;;;5.93;;
58354;SDS011;44160;49.080;19.302;2023-04-24T01:21:16;8.80;;;5.05;;
58354;SDS011;44160;49.080;19.302;2023-04-24T01:23:44;7.50;;;5.20;;
58354;SDS011;44160;49.080;19.302;2023-04-24T01:26:10;8.60;;;4.57;;
58354;SDS011;44160;49.080;19.302;2023-04-24T01:28:36;8.00;;;4.82;;
58354;SDS011;44160;49.080;19.302;2023-04-24T01:31:03;8.05;;;4.75;;
58354;SDS011;44160;49.080;19.302;2023-04-24T01:33:29;7.10;;;4.82;;
58354;SDS011;44160;49.080;19.302;2023-04-24T01:35:55;10.35;;;5.32;;
58354;SDS011;44160;49.080;19.302;2023-04-24T01:38:21;10.93;;;6.40;;
58354;SDS011;44160;49.080;19.302;2023-04-24T01:40:47;11.80;;;5.80;;
58354;SDS011;44160;49.080;19.302;2023-04-24T01:43:13;13.38;;;5.55;;
58354;SDS011;44160;49.080;19.302;2023-04-24T01:45:39;10.07;;;6.03;;
58354;SDS011;44160;49.080;19.302;2023-04-24T01:48:05;9.05;;;4.95;;
58354;SDS011;44160;49.080;19.302;2023-04-24T01:50:31;6.88;;;4.88;;
58354;SDS011;44160;49.080;19.302;2023-04-24T01:52:58;8.30;;;5.53;;
58354;SDS011;44160;49.080;19.302;2023-04-24T01:55:24;10.52;;;5.97;;
58354;SDS011;44160;49.080;19.302;2023-04-24T01:57:50;10.93;;;6.10;;
58354;SDS011;44160;49.080;19.302;2023-04-24T02:00:17;11.07;;;5.97;;
58354;SDS011;44160;49.080;19.302;2023-04-24T02:02:43;15.40;;;5.63;;
58354;SDS011;44160;49.080;19.302;2023-04-24T02:05:10;9.63;;;5.22;;
58354;SDS011;44160;49.080;19.302;2023-04-24T02:07:37;13.77;;;5.15;;
58354;SDS011;44160;49.080;19.302;2023-04-24T02:10:03;10.32;;;5.18;;
58354;SDS011;44160;49.080;19.302;2023-04-24T02:12:30;8.50;;;5.15;;
58354;SDS011;44160;49.080;19.302;2023-04-24T02:14:56;10.70;;;5.30;;
58354;SDS011;44160;49.080;19.302;2023-04-24T02:17:22;8.10;;;4.78;;
58354;SDS011;44160;49.080;19.302;2023-04-24T02:19:48;6.72;;;4.68;;
58354;SDS011;44160;49.080;19.302;2023-04-24T02:22:14;7.93;;;5.13;;
58354;SDS011;44160;49.080;19.302;2023-04-24T02:24:40;8.77;;;5.25;;
58354;SDS011;44160;49.080;19.302;2023-04-24T02:27:06;14.70;;;5.97;;
58354;SDS011;44160;49.080;19.302;2023-04-24T02:29:33;8.88;;;6.18;;
58354;SDS011;44160;49.080;19.302;2023-04-24T02:31:59;13.07;;;6.70;;
58354;SDS011;44160;49.080;19.302;2023-04-24T02:34:25;17.17;;;6.18;;
58354;SDS011;44160;49.080;19.302;2023-04-24T02:36:51;12.73;;;5.57;;
58354;SDS011;44160;49.080;19.302;2023-04-24T02:39:18;12.93;;;6.10;;
58354;SDS011;44160;49.080;19.302;2023-04-24T02:41:45;12.13;;;6.20;;
58354;SDS011;44160;49.080;19.302;2023-04-24T02:44:11;15.32;;;6.55;;
58354;SDS011;44160;49.080;19.302;2023-04-24T02:46:37;15.43;;;6.25;;
58354;SDS011;44160;49.080;19.302;2023-04-24T02:49:03;10.30;;;6.22;;
58354;SDS011;44160;49.080;19.302;2023-04-24T02:51:29;18.13;;;6.80;;
58354;SDS011;44160;49.080;19.302;2023-04-24T02:53:56;15.20;;;6.45;;
58354;SDS011;44160;49.080;19.302;2023-04-24T02:56:22;12.98;;;6.68;;
58354;SDS011;44160;49.080;19.302;2023-04-24T02:58:48;12.48;;;6.28;;
58354;SDS011;44160;49.080;19.302;2023-04-24T03:01:14;10.90;;;5.95;;
58354;SDS011;44160;49.080;19.302;2023-04-24T03:03:40;12.40;;;5.95;;
58354;SDS011;44160;49.080;19.302;2023-04-24T03:06:06;11.02;;;6.50;;
58354;SDS011;44160;49.080;19.302;2023-04-24T03:08:33;13.35;;;6.30;;
58354;SDS011;44160;49.080;19.302;2023-04-24T03:11:00;10.68;;;7.03;;
58354;SDS011;44160;49.080;19.302;2023-04-24T03:13:26;17.25;;;7.78;;
58354;SDS011;44160;49.080;19.302;2023-04-24T03:15:52;14.73;;;7.90;;
58354;SDS011;44160;49.080;19.302;2023-04-24T03:18:19;19.13;;;7.25;;
58354;SDS011;44160;49.080;19.302;2023-04-24T03:20:45;28.95;;;8.38;;
58354;SDS011;44160;49.080;19.302;2023-04-24T03:23:12;13.07;;;7.15;;
58354;SDS011;44160;49.080;19.302;2023-04-24T03:25:38;13.07;;;6.30;;
58354;SDS011;44160;49.080;19.302;2023-04-24T03:28:04;11.10;;;7.22;;
58354;SDS011;44160;49.080;19.302;2023-04-24T03:30:30;13.85;;;6.18;;
58354;SDS011;44160;49.080;19.302;2023-04-24T03:32:56;11.35;;;6.00;;
58354;SDS011;44160;49.080;19.302;2023-04-24T03:35:22;11.02;;;7.25;;
58354;SDS011;44160;49.080;19.302;2023-04-24T03:37:48;12.27;;;7.22;;
58354;SDS011;44160;49.080;19.302;2023-04-24T03:40:14;9.07;;;5.95;;
58354;SDS011;44160;49.080;19.302;2023-04-24T03:42:40;15.52;;;6.43;;
58354;SDS011;44160;49.080;19.302;2023-04-24T03:45:07;12.68;;;6.05;;
58354;SDS011;44160;49.080;19.302;2023-04-24T03:47:33;10.70;;;6.40;;
58354;SDS011;44160;49.080;19.302;2023-04-24T03:49:59;11.85;;;6.90;;
58354;SDS011;44160;49.080;19.302;2023-04-24T03:52:25;13.30;;;6.10;;
58354;SDS011;44160;49.080;19.302;2023-04-24T03:54:53;9.27;;;5.63;;
58354;SDS011;44160;49.080;19.302;2023-04-24T03:57:19;9.63;;;6.63;;
58354;SDS011;44160;49.080;19.302;2023-04-24T03:59:45;11.00;;;6.18;;
58354;SDS011;44160;49.080;19.302;2023-04-24T04:02:11;25.23;;;7.80;;
58354;SDS011;44160;49.080;19.302;2023-04-24T04:04:37;9.55;;;6.35;;
58354;SDS011;44160;49.080;19.302;2023-04-24T04:07:03;11.85;;;6.40;;
58354;SDS011;44160;49.080;19.302;2023-04-24T04:09:30;15.38;;;8.57;;
58354;SDS011;44160;49.080;19.302;2023-04-24T04:11:57;12.60;;;7.68;;
58354;SDS011;44160;49.080;19.302;2023-04-24T04:14:23;10.65;;;6.22;;
58354;SDS011;44160;49.080;19.302;2023-04-24T04:16:49;11.68;;;6.15;;
58354;SDS011;44160;49.080;19.302;2023-04-24T04:19:15;11.48;;;6.00;;
58354;SDS011;44160;49.080;19.302;2023-04-24T04:21:41;18.88;;;7.20;;
58354;SDS011;44160;49.080;19.302;2023-04-24T04:24:07;12.63;;;6.75;;
58354;SDS011;44160;49.080;19.302;2023-04-24T04:26:34;14.93;;;6.43;;
58354;SDS011;44160;49.080;19.302;2023-04-24T04:29:02;16.05;;;7.18;;
58354;SDS011;44160;49.080;19.302;2023-04-24T04:31:29;18.30;;;7.35;;
58354;SDS011;44160;49.080;19.302;2023-04-24T04:33:55;17.95;;;8.50;;
58354;SDS011;44160;49.080;19.302;2023-04-24T04:36:21;23.00;;;10.13;;
58354;SDS011;44160;49.080;19.302;2023-04-24T04:38:49;15.20;;;8.75;;
58354;SDS011;44160;49.080;19.302;2023-04-24T04:41:15;15.63;;;8.50;;
58354;SDS011;44160;49.080;19.302;2023-04-24T04:43:43;14.30;;;7.18;;
58354;SDS011;44160;49.080;19.302;2023-04-24T04:46:09;14.68;;;7.28;;
58354;SDS011;44160;49.080;19.302;2023-04-24T04:48:36;14.15;;;6.75;;
58354;SDS011;44160;49.080;19.302;2023-04-24T04:51:03;11.85;;;7.20;;
58354;SDS011;44160;49.080;19.302;2023-04-24T04:53:29;16.35;;;7.88;;
58354;SDS011;44160;49.080;19.302;2023-04-24T04:55:55;12.30;;;6.72;;
58354;SDS011;44160;49.080;19.302;2023-04-24T04:58:21;14.02;;;7.55;;
58354;SDS011;44160;49.080;19.302;2023-04-24T05:00:47;13.07;;;6.80;;
58354;SDS011;44160;49.080;19.302;2023-04-24T05:03:14;13.48;;;7.15;;
58354;SDS011;44160;49.080;19.302;2023-04-24T05:05:40;15.50;;;6.53;;
58354;SDS011;44160;49.080;19.302;2023-04-24T05:08:07;12.63;;;6.63;;
58354;SDS011;44160;49.080;19.302;2023-04-24T05:10:33;14.05;;;7.32;;
58354;SDS011;44160;49.080;19.302;2023-04-24T05:13:01;19.90;;;7.40;;
58354;SDS011;44160;49.080;19.302;2023-04-24T05:15:27;18.40;;;7.07;;
58354;SDS011;44160;49.080;19.302;2023-04-24T05:17:53;11.90;;;7.40;;
58354;SDS011;44160;49.080;19.302;2023-04-24T05:20:19;11.23;;;6.47;;
58354;SDS011;44160;49.080;19.302;2023-04-24T05:22:45;9.25;;;5.82;;
58354;SDS011;44160;49.080;19.302;2023-04-24T05:25:15;8.85;;;6.20;;
58354;SDS011;44160;49.080;19.302;2023-04-24T05:27:41;17.50;;;6.75;;
58354;SDS011;44160;49.080;19.302;2023-04-24T05:30:07;17.48;;;5.53;;
58354;SDS011;44160;49.080;19.302;2023-04-24T05:32:34;19.33;;;7.10;;
58354;SDS011;44160;49.080;19.302;2023-04-24T05:35:02;15.20;;;6.97;;
58354;SDS011;44160;49.080;19.302;2023-04-24T05:37:29;9.35;;;6.28;;
58354;SDS011;44160;49.080;19.302;2023-04-24T05:39:55;16.58;;;6.75;;
58354;SDS011;44160;49.080;19.302;2023-04-24T05:42:21;11.02;;;7.50;;
58354;SDS011;44160;49.080;19.302;2023-04-24T05:44:47;11.02;;;7.47;;
58354;SDS011;44160;49.080;19.302;2023-04-24T05:47:13;14.00;;;7.55;;
58354;SDS011;44160;49.080;19.302;2023-04-24T05:49:39;14.30;;;6.47;;
58354;SDS011;44160;49.080;19.302;2023-04-24T05:52:05;13.35;;;7.43;;
58354;SDS011;44160;49.080;19.302;2023-04-24T05:54:33;14.43;;;6.82;;
58354;SDS011;44160;49.080;19.302;2023-04-24T05:57:00;14.43;;;7.75;;
58354;SDS011;44160;49.080;19.302;2023-04-24T05:59:29;24.38;;;9.90;;
58354;SDS011;44160;49.080;19.302;2023-04-24T06:01:55;22.55;;;9.68;;
58354;SDS011;44160;49.080;19.302;2023-04-24T06:04:22;21.25;;;9.60;;
58354;SDS011;44160;49.080;19.302;2023-04-24T06:06:48;20.92;;;10.07;;
58354;SDS011;44160;49.080;19.302;2023-04-24T06:09:16;15.43;;;8.93;;
58354;SDS011;44160;49.080;19.302;2023-04-24T06:11:43;16.00;;;8.40;;
58354;SDS011;44160;49.080;19.302;2023-04-24T06:14:09;26.92;;;9.88;;
58354;SDS011;44160;49.080;19.302;2023-04-24T06:16:35;17.35;;;8.32;;
58354;SDS011;44160;49.080;19.302;2023-04-24T06:19:01;23.15;;;7.57;;
58354;SDS011;44160;49.080;19.302;2023-04-24T06:21:27;18.08;;;7.72;;
58354;SDS011;44160;49.080;19.302;2023-04-24T06:23:59;25.98;;;7.47;;
58354;SDS011;44160;49.080;19.302;2023-04-24T06:26:29;21.35;;;8.35;;
58354;SDS011;44160;49.080;19.302;2023-04-24T06:28:55;29.02;;;7.97;;
58354;SDS011;44160;49.080;19.302;2023-04-24T06:31:23;24.83;;;6.70;;
58354;SDS011;44160;49.080;19.302;2023-04-24T06:33:49;22.23;;;7.63;;
58354;SDS011;44160;49.080;19.302;2023-04-24T06:36:15;20.77;;;7.10;;
58354;SDS011;44160;49.080;19.302;2023-04-24T06:38:42;23.20;;;9.75;;
58354;SDS011;44160;49.080;19.302;2023-04-24T06:41:09;18.17;;;7.88;;
58354;SDS011;44160;49.080;19.302;2023-04-24T06:43:36;18.33;;;9.18;;
58354;SDS011;44160;49.080;19.302;2023-04-24T06:46:02;21.67;;;10.50;;
58354;SDS011;44160;49.080;19.302;2023-04-24T06:48:28;26.08;;;9.82;;
58354;SDS011;44160;49.080;19.302;2023-04-24T06:50:55;24.30;;;10.27;;
58354;SDS011;44160;49.080;19.302;2023-04-24T06:53:21;19.20;;;10.93;;
58354;SDS011;44160;49.080;19.302;2023-04-24T06:55:47;20.42;;;9.55;;
58354;SDS011;44160;49.080;19.302;2023-04-24T06:58:13;22.25;;;8.23;;
58354;SDS011;44160;49.080;19.302;2023-04-24T07:00:40;28.92;;;8.45;;
58354;SDS011;44160;49.080;19.302;2023-04-24T07:03:06;34.20;;;7.75;;
58354;SDS011;44160;49.080;19.302;2023-04-24T07:05:32;24.55;;;8.50;;
58354;SDS011;44160;49.080;19.302;2023-04-24T07:08:07;19.33;;;7.10;;
58354;SDS011;44160;49.080;19.302;2023-04-24T07:10:36;20.50;;;5.82;;
58354;SDS011;44160;49.080;19.302;2023-04-24T07:13:02;17.33;;;7.10;;
58354;SDS011;44160;49.080;19.302;2023-04-24T07:15:29;18.20;;;6.28;;
58354;SDS011;44160;49.080;19.302;2023-04-24T07:17:55;13.45;;;6.13;;
58354;SDS011;44160;49.080;19.302;2023-04-24T07:20:21;10.95;;;5.57;;
58354;SDS011;44160;49.080;19.302;2023-04-24T07:22:48;17.40;;;5.90;;
58354;SDS011;44160;49.080;19.302;2023-04-24T07:25:14;17.50;;;5.78;;
58354;SDS011;44160;49.080;19.302;2023-04-24T07:27:41;14.52;;;6.20;;
58354;SDS011;44160;49.080;19.302;2023-04-24T07:30:10;14.02;;;6.50;;
58354;SDS011;44160;49.080;19.302;2023-04-24T07:32:36;12.10;;;5.18;;
58354;SDS011;44160;49.080;19.302;2023-04-24T07:35:03;12.18;;;7.20;;
58354;SDS011;44160;49.080;19.302;2023-04-24T07:37:29;12.60;;;6.47;;
58354;SDS011;44160;49.080;19.302;2023-04-24T07:39:55;14.35;;;6.20;;
58354;SDS011;44160;49.080;19.302;2023-04-24T07:42:21;14.27;;;6.40;;
58354;SDS011;44160;49.080;19.302;2023-04-24T07:44:47;15.50;;;6.55;;
58354;SDS011;44160;49.080;19.302;2023-04-24T07:47:14;14.85;;;7.07;;
58354;SDS011;44160;49.080;19.302;2023-04-24T07:49:43;12.48;;;6.90;;
58354;SDS011;44160;49.080;19.302;2023-04-24T07:52:09;15.25;;;6.70;;
58354;SDS011;44160;49.080;19.302;2023-04-24T07:54:37;12.73;;;5.88;;
58354;SDS011;44160;49.080;19.302;2023-04-24T07:57:03;20.92;;;10.40;;
58354;SDS011;44160;49.080;19.302;2023-04-24T07:59:31;11.10;;;6.68;;
58354;SDS011;44160;49.080;19.302;2023-04-24T08:01:58;13.10;;;6.65;;
58354;SDS011;44160;49.080;19.302;2023-04-24T08:04:26;17.15;;;7.80;;
58354;SDS011;44160;49.080;19.302;2023-04-24T08:06:53;12.88;;;6.97;;
58354;SDS011;44160;49.080;19.302;2023-04-24T08:09:19;18.83;;;6.90;;
58354;SDS011;44160;49.080;19.302;2023-04-24T08:11:45;16.58;;;7.10;;
58354;SDS011;44160;49.080;19.302;2023-04-24T08:14:11;11.90;;;5.97;;
58354;SDS011;44160;49.080;19.302;2023-04-24T08:16:38;21.38;;;9.18;;
58354;SDS011;44160;49.080;19.302;2023-04-24T08:19:04;13.70;;;7.05;;
58354;SDS011;44160;49.080;19.302;2023-04-24T08:21:30;19.08;;;6.70;;
58354;SDS011;44160;49.080;19.302;2023-04-24T08:23:56;13.15;;;6.97;;
58354;SDS011;44160;49.080;19.302;2023-04-24T08:26:23;18.23;;;7.72;;
58354;SDS011;44160;49.080;19.302;2023-04-24T08:31:59;19.92;;;5.57;;
58354;SDS011;44160;49.080;19.302;2023-04-24T08:38:27;9.73;;;5.88;;
58354;SDS011;44160;49.080;19.302;2023-04-24T08:41:01;12.40;;;5.65;;
58354;SDS011;44160;49.080;19.302;2023-04-24T08:43:27;14.68;;;7.50;;
58354;SDS011;44160;49.080;19.302;2023-04-24T08:45:55;15.80;;;6.80;;
58354;SDS011;44160;49.080;19.302;2023-04-24T08:48:24;10.50;;;4.05;;
58354;SDS011;44160;49.080;19.302;2023-04-24T08:50:51;10.02;;;4.00;;
58354;SDS011;44160;49.080;19.302;2023-04-24T08:53:17;8.60;;;4.13;;
58354;SDS011;44160;49.080;19.302;2023-04-24T08:55:46;5.82;;;4.10;;
58354;SDS011;44160;49.080;19.302;2023-04-24T08:58:16;5.55;;;3.80;;
58354;SDS011;44160;49.080;19.302;2023-04-24T09:00:43;10.13;;;5.28;;
58354;SDS011;44160;49.080;19.302;2023-04-24T09:03:13;9.25;;;3.88;;
58354;SDS011;44160;49.080;19.302;2023-04-24T09:05:40;6.78;;;3.45;;
58354;SDS011;44160;49.080;19.302;2023-04-24T09:08:10;9.93;;;4.77;;
58354;SDS011;44160;49.080;19.302;2023-04-24T09:10:43;7.15;;;3.67;;
58354;SDS011;44160;49.080;19.302;2023-04-24T09:13:09;7.70;;;3.90;;
58354;SDS011;44160;49.080;19.302;2023-04-24T09:15:36;4.07;;;2.90;;
58354;SDS011;44160;49.080;19.302;2023-04-24T09:18:05;13.00;;;3.60;;
58354;SDS011;44160;49.080;19.302;2023-04-24T09:23:19;11.63;;;3.70;;
58354;SDS011;44160;49.080;19.302;2023-04-24T09:25:48;4.15;;;3.28;;
58354;SDS011;44160;49.080;19.302;2023-04-24T09:28:30;5.88;;;3.40;;
58354;SDS011;44160;49.080;19.302;2023-04-24T09:31:09;6.35;;;3.63;;
58354;SDS011;44160;49.080;19.302;2023-04-24T09:33:36;6.38;;;3.80;;
58354;SDS011;44160;49.080;19.302;2023-04-24T09:36:02;6.32;;;3.17;;
58354;SDS011;44160;49.080;19.302;2023-04-24T09:38:36;5.03;;;3.60;;
58354;SDS011;44160;49.080;19.302;2023-04-24T09:41:06;7.43;;;3.85;;
58354;SDS011;44160;49.080;19.302;2023-04-24T09:43:33;5.70;;;3.85;;
58354;SDS011;44160;49.080;19.302;2023-04-24T09:46:06;12.25;;;4.18;;
58354;SDS011;44160;49.080;19.302;2023-04-24T09:48:35;6.47;;;3.60;;
58354;SDS011;44160;49.080;19.302;2023-04-24T09:51:05;7.53;;;3.95;;
58354;SDS011;44160;49.080;19.302;2023-04-24T09:53:36;14.82;;;5.05;;
58354;SDS011;44160;49.080;19.302;2023-04-24T09:56:09;6.40;;;4.00;;
58354;SDS011;44160;49.080;19.302;2023-04-24T09:58:38;5.05;;;3.55;;
58354;SDS011;44160;49.080;19.302;2023-04-24T10:01:04;6.70;;;4.53;;
58354;SDS011;44160;49.080;19.302;2023-04-24T10:03:36;7.70;;;3.65;;
58354;SDS011;44160;49.080;19.302;2023-04-24T10:06:11;8.07;;;4.28;;
58354;SDS011;44160;49.080;19.302;2023-04-24T10:08:37;6.95;;;3.88;;
58354;SDS011;44160;49.080;19.302;2023-04-24T10:11:06;7.90;;;3.95;;
58354;SDS011;44160;49.080;19.302;2023-04-24T10:13:33;9.50;;;4.95;;
58354;SDS011;44160;49.080;19.302;2023-04-24T10:16:02;6.05;;;4.13;;
58354;SDS011;44160;49.080;19.302;2023-04-24T10:18:29;9.48;;;4.47;;
58354;SDS011;44160;49.080;19.302;2023-04-24T10:20:55;8.25;;;4.35;;
58354;SDS011;44160;49.080;19.302;2023-04-24T10:23:27;7.13;;;5.13;;
58354;SDS011;44160;49.080;19.302;2023-04-24T10:25:55;11.00;;;5.22;;
58354;SDS011;44160;49.080;19.302;2023-04-24T10:28:24;11.35;;;5.50;;
58354;SDS011;44160;49.080;19.302;2023-04-24T10:31:02;11.27;;;5.47;;
58354;SDS011;44160;49.080;19.302;2023-04-24T10:33:31;7.68;;;6.00;;
58354;SDS011;44160;49.080;19.302;2023-04-24T10:36:00;5.60;;;5.03;;
58354;SDS011;44160;49.080;19.302;2023-04-24T10:38:30;5.57;;;4.70;;
58354;SDS011;44160;49.080;19.302;2023-04-24T10:41:12;5.88;;;4.90;;
58354;SDS011;44160;49.080;19.302;2023-04-24T10:43:58;4.65;;;4.13;;
58354;SDS011;44160;49.080;19.302;2023-04-24T10:46:38;6.80;;;4.90;;
58354;SDS011;44160;49.080;19.302;2023-04-24T10:49:05;7.13;;;6.20;;
58354;SDS011;44160;49.080;19.302;2023-04-24T10:51:51;7.10;;;5.95;;
58354;SDS011;44160;49.080;19.302;2023-04-24T10:54:27;5.70;;;4.80;;
58354;SDS011;44160;49.080;19.302;2023-04-24T10:59:49;7.43;;;5.55;;
58354;SDS011;44160;49.080;19.302;2023-04-24T11:02:20;6.38;;;5.13;;
58354;SDS011;44160;49.080;19.302;2023-04-24T11:05:02;6.25;;;5.13;;
58354;SDS011;44160;49.080;19.302;2023-04-24T11:07:28;6.38;;;4.55;;
58354;SDS011;44160;49.080;19.302;2023-04-24T11:09:58;5.30;;;4.60;;
58354;SDS011;44160;49.080;19.302;2023-04-24T11:12:26;7.07;;;5.18;;
58354;SDS011;44160;49.080;19.302;2023-04-24T11:15:02;7.03;;;5.03;;
58354;SDS011;44160;49.080;19.302;2023-04-24T11:17:30;5.93;;;4.63;;
58354;SDS011;44160;49.080;19.302;2023-04-24T11:20:16;6.82;;;4.97;;
58354;SDS011;44160;49.080;19.302;2023-04-24T11:23:07;11.30;;;6.32;;
58354;SDS011;44160;49.080;19.302;2023-04-24T11:25:39;11.18;;;5.30;;
58354;SDS011;44160;49.080;19.302;2023-04-24T11:28:05;5.70;;;4.50;;
58354;SDS011;44160;49.080;19.302;2023-04-24T11:30:32;6.65;;;4.50;;
58354;SDS011;44160;49.080;19.302;2023-04-24T11:33:05;26.02;;;16.40;;
58354;SDS011;44160;49.080;19.302;2023-04-24T11:35:41;16.90;;;12.02;;
58354;SDS011;44160;49.080;19.302;2023-04-24T11:38:07;11.82;;;5.63;;
58354;SDS011;44160;49.080;19.302;2023-04-24T11:40:34;5.15;;;4.28;;
58354;SDS011;44160;49.080;19.302;2023-04-24T11:43:03;6.97;;;4.35;;
58354;SDS011;44160;49.080;19.302;2023-04-24T11:45:30;6.30;;;4.00;;
58354;SDS011;44160;49.080;19.302;2023-04-24T11:48:06;6.55;;;3.67;;
58354;SDS011;44160;49.080;19.302;2023-04-24T11:50:34;5.47;;;4.45;;
58354;SDS011;44160;49.080;19.302;2023-04-24T11:53:01;11.18;;;7.07;;
58354;SDS011;44160;49.080;19.302;2023-04-24T11:55:27;10.80;;;7.05;;
58354;SDS011;44160;49.080;19.302;2023-04-24T11:57:58;14.00;;;8.63;;
58354;SDS011;44160;49.080;19.302;2023-04-24T12:00:26;8.27;;;6.50;;
58354;SDS011;44160;49.080;19.302;2023-04-24T12:03:02;8.80;;;6.97;;
58354;SDS011;44160;49.080;19.302;2023-04-24T12:05:30;12.13;;;7.65;;
58354;SDS011;44160;49.080;19.302;2023-04-24T12:08:14;9.15;;;6.50;;
58354;SDS011;44160;49.080;19.302;2023-04-24T12:10:50;7.65;;;6.60;;
58354;SDS011;44160;49.080;19.302;2023-04-24T12:13:17;8.93;;;6.28;;
58354;SDS011;44160;49.080;19.302;2023-04-24T12:15:43;9.80;;;7.22;;
58354;SDS011;44160;49.080;19.302;2023-04-24T12:18:12;9.30;;;7.32;;
58354;SDS011;44160;49.080;19.302;2023-04-24T12:20:41;10.18;;;6.88;;
58354;SDS011;44160;49.080;19.302;2023-04-24T12:23:07;12.68;;;8.07;;
58354;SDS011;44160;49.080;19.302;2023-04-24T12:25:34;20.00;;;9.10;;
58354;SDS011;44160;49.080;19.302;2023-04-24T12:28:10;19.05;;;12.32;;
58354;SDS011;44160;49.080;19.302;2023-04-24T12:33:36;10.32;;;7.25;;
58354;SDS011;44160;49.080;19.302;2023-04-24T12:36:05;9.80;;;7.57;;
58354;SDS011;44160;49.080;19.302;2023-04-24T12:38:31;12.60;;;8.32;;
58354;SDS011;44160;49.080;19.302;2023-04-24T12:41:06;13.82;;;9.27;;
58354;SDS011;44160;49.080;19.302;2023-04-24T12:43:33;13.20;;;10.25;;
58354;SDS011;44160;49.080;19.302;2023-04-24T12:45:59;10.65;;;8.65;;
58354;SDS011;44160;49.080;19.302;2023-04-24T12:48:28;12.00;;;8.48;;
58354;SDS011;44160;49.080;19.302;2023-04-24T12:50:56;10.45;;;8.02;;
58354;SDS011;44160;49.080;19.302;2023-04-24T12:53:25;14.27;;;10.82;;
58354;SDS011;44160;49.080;19.302;2023-04-24T12:55:52;16.90;;;11.40;;
58354;SDS011;44160;49.080;19.302;2023-04-24T12:58:19;14.98;;;11.55;;
58354;SDS011;44160;49.080;19.302;2023-04-24T13:00:46;23.73;;;14.02;;
58354;SDS011;44160;49.080;19.302;2023-04-24T13:03:12;9.43;;;8.00;;
58354;SDS011;44160;49.080;19.302;2023-04-24T13:05:38;10.38;;;8.15;;
58354;SDS011;44160;49.080;19.302;2023-04-24T13:08:05;13.43;;;9.73;;
58354;SDS011;44160;49.080;19.302;2023-04-24T13:10:31;15.30;;;9.57;;
58354;SDS011;44160;49.080;19.302;2023-04-24T13:12:57;11.82;;;8.75;;
58354;SDS011;44160;49.080;19.302;2023-04-24T13:15:23;12.88;;;9.88;;
58354;SDS011;44160;49.080;19.302;2023-04-24T13:17:50;12.00;;;10.07;;
58354;SDS011;44160;49.080;19.302;2023-04-24T13:20:16;11.55;;;9.50;;
58354;SDS011;44160;49.080;19.302;2023-04-24T13:22:42;13.57;;;9.55;;
58354;SDS011;44160;49.080;19.302;2023-04-24T13:25:08;15.68;;;11.55;;
58354;SDS011;44160;49.080;19.302;2023-04-24T13:27:35;15.70;;;10.43;;
58354;SDS011;44160;49.080;19.302;2023-04-24T13:30:01;19.38;;;12.68;;
58354;SDS011;44160;49.080;19.302;2023-04-24T13:32:27;26.65;;;15.85;;
58354;SDS011;44160;49.080;19.302;2023-04-24T13:34:53;15.93;;;11.75;;
58354;SDS011;44160;49.080;19.302;2023-04-24T13:37:20;27.08;;;17.38;;
58354;SDS011;44160;49.080;19.302;2023-04-24T13:39:47;20.88;;;13.55;;
58354;SDS011;44160;49.080;19.302;2023-04-24T13:42:13;11.93;;;9.43;;
58354;SDS011;44160;49.080;19.302;2023-04-24T13:44:39;26.63;;;14.68;;
58354;SDS011;44160;49.080;19.302;2023-04-24T13:47:05;19.40;;;12.73;;
58354;SDS011;44160;49.080;19.302;2023-04-24T13:49:31;12.02;;;9.05;;
58354;SDS011;44160;49.080;19.302;2023-04-24T13:51:57;13.63;;;9.48;;
58354;SDS011;44160;49.080;19.302;2023-04-24T13:54:27;13.35;;;9.63;;
58354;SDS011;44160;49.080;19.302;2023-04-24T13:56:55;9.88;;;8.30;;
58354;SDS011;44160;49.080;19.302;2023-04-24T13:59:22;23.70;;;14.88;;
58354;SDS011;44160;49.080;19.302;2023-04-24T14:01:53;25.73;;;15.88;;
58354;SDS011;44160;49.080;19.302;2023-04-24T14:04:20;15.50;;;12.45;;
58354;SDS011;44160;49.080;19.302;2023-04-24T14:06:46;12.98;;;9.65;;
58354;SDS011;44160;49.080;19.302;2023-04-24T14:09:12;12.40;;;10.55;;
58354;SDS011;44160;49.080;19.302;2023-04-24T14:11:38;14.88;;;10.07;;
58354;SDS011;44160;49.080;19.302;2023-04-24T14:14:05;12.95;;;8.75;;
58354;SDS011;44160;49.080;19.302;2023-04-24T14:16:33;12.55;;;8.65;;
58354;SDS011;44160;49.080;19.302;2023-04-24T14:19:02;10.13;;;8.27;;
58354;SDS011;44160;49.080;19.302;2023-04-24T14:21:30;8.85;;;7.95;;
58354;SDS011;44160;49.080;19.302;2023-04-24T14:24:02;10.32;;;9.07;;
58354;SDS011;44160;49.080;19.302;2023-04-24T14:26:34;14.98;;;8.80;;
58354;SDS011;44160;49.080;19.302;2023-04-24T14:29:00;10.57;;;8.43;;
58354;SDS011;44160;49.080;19.302;2023-04-24T14:31:26;10.40;;;8.68;;
58354;SDS011;44160;49.080;19.302;2023-04-24T14:33:53;19.08;;;13.10;;
58354;SDS011;44160;49.080;19.302;2023-04-24T14:36:19;13.38;;;10.85;;
58354;SDS011;44160;49.080;19.302;2023-04-24T14:38:46;19.00;;;13.20;;
58354;SDS011;44160;49.080;19.302;2023-04-24T14:41:12;11.20;;;8.73;;